Time;durP1;ratioP1;P1;durP2;ratioP2;P2;SDS_P1;SDS_P2;PMS_P1;PMS_P2;Temp;Humidity;BMP_temperature;BMP_pressure;BME280_temperature;BME280_humidity;BME280_pressure;Samples;Min_cycle;Max_cycle;Signal;HPM_P1;HPM_P2
2021/05/10 00:01:40;;;;;;;1.40;1.17;;;15.90;99.90;;;;;;5024247;28;20725;-80
2021/05/10 00:04:06;;;;;;;1.20;1.10;;;16.00;99.90;;;;;;5025539;28;20265;-81
2021/05/10 00:06:31;;;;;;;1.52;1.00;;;16.10;99.90;;;;;;5025439;28;20203;-80
2021/05/10 00:08:57;;;;;;;2.17;1.05;;;16.20;99.90;;;;;;5024541;28;20198;-80
2021/05/10 00:11:24;;;;;;;1.55;1.00;;;16.30;99.90;;;;;;5024376;28;20189;-81
2021/05/10 00:13:51;;;;;;;1.02;0.90;;;16.20;99.90;;;;;;5025218;28;20259;-80
2021/05/10 00:16:17;;;;;;;1.10;1.00;;;16.20;99.90;;;;;;5023971;28;20206;-81
2021/05/10 00:18:43;;;;;;;1.30;1.00;;;16.20;99.90;;;;;;5024266;28;20269;-81
2021/05/10 00:21:08;;;;;;;0.80;0.80;;;16.10;99.90;;;;;;5024042;28;20597;-81
2021/05/10 00:23:34;;;;;;;1.25;1.00;;;15.90;99.90;;;;;;5022870;28;20329;-81
2021/05/10 00:26:00;;;;;;;1.20;1.02;;;15.90;99.90;;;;;;5025660;28;20367;-81
2021/05/10 00:28:25;;;;;;;0.80;0.80;;;15.80;99.90;;;;;;5023545;28;20907;-80
2021/05/10 00:30:51;;;;;;;1.00;1.00;;;15.80;99.90;;;;;;5024770;28;20687;-81
2021/05/10 00:33:17;;;;;;;1.00;1.00;;;15.70;99.90;;;;;;5025110;28;20187;-81
2021/05/10 00:35:42;;;;;;;1.70;1.13;;;15.70;99.90;;;;;;5024925;28;20286;-80
2021/05/10 00:38:08;;;;;;;0.68;0.68;;;15.60;99.90;;;;;;5025053;28;20206;-80
2021/05/10 00:40:34;;;;;;;0.90;0.90;;;15.50;99.90;;;;;;5023795;28;20179;-80
2021/05/10 00:43:00;;;;;;;1.33;0.88;;;15.60;99.90;;;;;;5025493;28;20225;-80
2021/05/10 00:45:27;;;;;;;1.35;1.02;;;15.50;99.90;;;;;;5024483;28;20218;-81
2021/05/10 00:47:52;;;;;;;1.10;1.05;;;15.50;99.90;;;;;;5023924;28;20608;-80
2021/05/10 00:50:19;;;;;;;1.00;0.88;;;15.40;99.90;;;;;;5032029;28;20183;-80
2021/05/10 00:52:45;;;;;;;0.82;0.82;;;15.30;99.90;;;;;;5025051;28;20652;-80
2021/05/10 00:55:13;;;;;;;1.33;1.00;;;15.40;99.90;;;;;;5025674;28;20190;-80
2021/05/10 00:57:51;;;;;;;1.45;1.10;;;15.50;99.90;;;;;;5029353;28;20618;-80
2021/05/10 01:00:18;;;;;;;1.02;1.00;;;15.50;99.90;;;;;;5029339;28;20202;-81
2021/05/10 01:02:44;;;;;;;0.90;0.90;;;15.60;99.90;;;;;;5044250;28;20293;-80
2021/05/10 01:05:11;;;;;;;1.10;1.00;;;15.70;99.90;;;;;;5028457;28;21268;-80
2021/05/10 01:07:38;;;;;;;1.30;1.20;;;15.60;99.90;;;;;;5043758;28;20286;-81
2021/05/10 01:10:11;;;;;;;1.00;1.00;;;15.60;99.90;;;;;;5044401;28;20174;-80
2021/05/10 01:12:37;;;;;;;3.03;1.08;;;15.60;99.90;;;;;;5028784;28;20185;-81
2021/05/10 01:15:09;;;;;;;1.63;1.08;;;15.60;99.90;;;;;;5027233;28;20252;-80
2021/05/10 01:17:36;;;;;;;1.05;1.00;;;15.50;99.90;;;;;;5028433;28;20179;-81
2021/05/10 01:20:05;;;;;;;1.20;1.10;;;15.60;99.90;;;;;;5027467;28;20190;-80
2021/05/10 01:22:42;;;;;;;1.00;0.88;;;15.60;99.90;;;;;;5028795;28;20195;-80
2021/05/10 01:25:31;;;;;;;1.30;1.20;;;15.60;99.90;;;;;;5028616;28;20798;-79
2021/05/10 01:27:58;;;;;;;1.10;1.00;;;15.60;99.90;;;;;;5026980;28;20207;-80
2021/05/10 01:30:31;;;;;;;1.10;1.00;;;15.50;99.90;;;;;;5028972;28;20185;-79
2021/05/10 01:32:57;;;;;;;1.30;1.20;;;15.50;99.90;;;;;;5028914;28;20185;-79
2021/05/10 01:35:26;;;;;;;1.17;1.05;;;15.40;99.90;;;;;;5034412;28;20186;-78
2021/05/10 01:37:51;;;;;;;1.45;1.30;;;15.30;99.90;;;;;;5028780;28;20276;-81
2021/05/10 01:40:17;;;;;;;1.52;1.30;;;15.20;99.90;;;;;;5027798;28;20270;-79
2021/05/10 01:42:43;;;;;;;1.10;1.00;;;15.10;99.90;;;;;;5027281;28;20253;-79
2021/05/10 01:45:09;;;;;;;1.20;1.10;;;15.00;99.90;;;;;;5028245;28;20636;-78
2021/05/10 01:47:35;;;;;;;1.75;1.65;;;14.90;99.90;;;;;;5044348;28;20182;-79
2021/05/10 01:50:15;;;;;;;1.13;1.02;;;14.80;99.90;;;;;;5027513;28;20742;-78
2021/05/10 01:52:41;;;;;;;1.35;1.00;;;14.70;99.90;;;;;;5027198;28;20167;-78
2021/05/10 01:55:07;;;;;;;1.15;1.05;;;14.60;99.90;;;;;;5026660;28;20179;-78
2021/05/10 01:57:33;;;;;;;1.45;1.33;;;14.50;99.90;;;;;;5027115;28;20731;-78
2021/05/10 01:59:59;;;;;;;1.13;1.02;;;14.50;99.90;;;;;;5027164;28;20274;-80
2021/05/10 02:02:26;;;;;;;1.35;1.25;;;14.50;99.90;;;;;;5029396;28;20570;-80
2021/05/10 02:05:11;;;;;;;1.20;1.10;;;14.50;99.90;;;;;;5027624;28;20270;-78
2021/05/10 02:07:40;;;;;;;1.45;1.35;;;14.50;99.90;;;;;;5026446;28;20214;-80
2021/05/10 02:10:10;;;;;;;1.30;1.20;;;14.50;99.90;;;;;;5027986;28;20478;-80
2021/05/10 02:12:36;;;;;;;1.30;1.20;;;14.70;99.90;;;;;;5027853;28;20191;-80
2021/05/10 02:15:04;;;;;;;0.98;0.98;;;14.70;99.90;;;;;;5027618;28;20301;-80
2021/05/10 02:17:30;;;;;;;1.20;1.10;;;14.70;99.90;;;;;;5025926;28;20194;-79
2021/05/10 02:19:55;;;;;;;1.00;0.90;;;14.80;99.90;;;;;;5026380;28;20198;-79
2021/05/10 02:22:21;;;;;;;1.27;1.10;;;14.80;99.90;;;;;;5026668;28;20186;-80
2021/05/10 02:24:46;;;;;;;1.67;1.23;;;14.80;99.90;;;;;;5027386;28;20193;-80
2021/05/10 02:27:12;;;;;;;1.25;1.10;;;14.70;99.90;;;;;;5025963;28;20222;-79
2021/05/10 02:29:38;;;;;;;1.10;1.10;;;14.70;99.90;;;;;;5027500;28;20595;-80
2021/05/10 02:32:04;;;;;;;1.40;1.13;;;14.70;99.90;;;;;;5026215;28;20207;-80
2021/05/10 02:34:29;;;;;;;5.00;1.13;;;14.70;99.90;;;;;;5025769;28;20189;-79
2021/05/10 02:36:55;;;;;;;1.13;1.02;;;14.90;99.90;;;;;;5027055;28;20233;-80
2021/05/10 02:39:21;;;;;;;0.95;0.95;;;14.90;99.90;;;;;;5027352;28;20645;-80
2021/05/10 02:41:46;;;;;;;1.05;0.98;;;15.00;99.90;;;;;;5025937;28;20187;-79
2021/05/10 02:44:12;;;;;;;1.08;0.77;;;15.00;99.90;;;;;;5026959;28;20235;-80
2021/05/10 02:46:37;;;;;;;1.10;1.10;;;15.00;99.90;;;;;;5026243;28;20291;-80
2021/05/10 02:49:03;;;;;;;1.08;0.98;;;15.10;99.90;;;;;;5025770;28;20226;-77
2021/05/10 02:51:29;;;;;;;2.65;1.40;;;15.20;99.90;;;;;;5030554;28;20675;-80
2021/05/10 02:53:54;;;;;;;1.48;1.10;;;15.20;99.90;;;;;;5024734;28;21143;-79
2021/05/10 02:56:20;;;;;;;1.65;1.35;;;15.30;99.90;;;;;;5025497;28;20257;-81
2021/05/10 02:58:45;;;;;;;1.20;1.08;;;15.20;99.90;;;;;;5027076;28;20191;-81
2021/05/10 03:01:11;;;;;;;0.80;0.80;;;15.20;99.90;;;;;;5025553;28;20725;-81
2021/05/10 03:03:37;;;;;;;1.02;0.90;;;15.10;99.90;;;;;;5026685;28;20175;-81
2021/05/10 03:06:02;;;;;;;1.33;0.80;;;15.20;99.90;;;;;;5026683;28;20211;-81
2021/05/10 03:08:28;;;;;;;1.80;1.00;;;15.20;99.90;;;;;;5026879;28;20289;-80
2021/05/10 03:10:54;;;;;;;1.10;1.00;;;15.30;99.90;;;;;;5025798;28;20388;-81
2021/05/10 03:13:19;;;;;;;0.90;0.90;;;15.30;99.90;;;;;;5026356;28;20202;-81
2021/05/10 03:15:45;;;;;;;1.13;1.02;;;15.20;99.90;;;;;;5026695;28;20206;-81
2021/05/10 03:18:10;;;;;;;1.02;0.93;;;15.30;99.90;;;;;;5028938;28;20380;-80
2021/05/10 03:20:36;;;;;;;0.95;0.95;;;15.20;99.90;;;;;;5027916;28;20210;-81
2021/05/10 03:23:01;;;;;;;0.90;0.90;;;15.10;99.90;;;;;;5026789;28;20261;-77
2021/05/10 03:25:27;;;;;;;5.00;1.02;;;15.10;99.90;;;;;;5027246;28;21246;-77
2021/05/10 03:27:53;;;;;;;1.20;1.10;;;15.00;99.90;;;;;;5026870;28;20186;-75
2021/05/10 03:30:23;;;;;;;1.05;0.95;;;14.90;99.90;;;;;;5026793;28;20285;-77
2021/05/10 03:32:50;;;;;;;1.08;1.00;;;14.90;99.90;;;;;;5028918;28;20186;-76
2021/05/10 03:35:17;;;;;;;1.27;1.17;;;14.80;99.90;;;;;;5029240;28;20189;-76
2021/05/10 03:37:44;;;;;;;1.55;1.38;;;14.80;99.90;;;;;;5027705;28;20191;-76
2021/05/10 03:40:11;;;;;;;1.90;1.35;;;14.80;99.90;;;;;;5030086;28;20191;-78
2021/05/10 03:42:38;;;;;;;1.80;1.20;;;14.80;99.90;;;;;;5031649;28;20225;-77
2021/05/10 03:45:05;;;;;;;1.17;1.10;;;14.90;99.90;;;;;;5032318;28;20633;-78
2021/05/10 03:47:39;;;;;;;1.20;1.10;;;14.90;99.90;;;;;;5033871;28;20218;-78
2021/05/10 03:50:20;;;;;;;1.33;1.13;;;14.80;99.90;;;;;;5032047;28;20213;-77
2021/05/10 03:52:47;;;;;;;2.20;1.23;;;14.80;99.90;;;;;;5032223;28;20228;-77
2021/05/10 03:55:15;;;;;;;1.45;1.10;;;14.80;99.90;;;;;;5031203;28;20187;-78
2021/05/10 03:57:41;;;;;;;1.17;1.02;;;14.70;99.90;;;;;;5032274;28;20636;-78
2021/05/10 04:00:09;;;;;;;0.95;0.95;;;14.70;99.90;;;;;;5032863;28;20195;-78
2021/05/10 04:02:38;;;;;;;1.48;1.38;;;14.70;99.90;;;;;;5031924;28;20191;-78
2021/05/10 04:15:34;;;;;;;1.27;1.17;;;14.70;99.90;;;;;;5028150;28;20217;-76
2021/05/10 04:17:59;;;;;;;1.88;1.60;;;14.60;99.90;;;;;;5028727;28;20183;-79
2021/05/10 04:20:25;;;;;;;1.38;1.27;;;14.70;99.90;;;;;;5028827;28;20241;-77
2021/05/10 04:22:51;;;;;;;2.03;1.45;;;14.80;99.90;;;;;;5028588;28;20664;-78
2021/05/10 04:25:16;;;;;;;1.42;1.33;;;15.00;99.90;;;;;;5027876;28;20186;-78
2021/05/10 04:27:42;;;;;;;1.52;1.20;;;15.10;99.90;;;;;;5029211;28;20186;-78
2021/05/10 04:30:08;;;;;;;1.92;1.25;;;15.20;99.90;;;;;;5027840;28;20189;-78
2021/05/10 04:32:34;;;;;;;1.65;1.55;;;15.40;99.90;;;;;;5027860;28;20233;-78
2021/05/10 04:35:00;;;;;;;1.58;1.42;;;15.60;99.90;;;;;;5026787;28;20190;-77
2021/05/10 04:37:25;;;;;;;1.88;1.45;;;15.70;99.90;;;;;;5028448;28;20305;-77
2021/05/10 04:39:51;;;;;;;1.40;1.30;;;16.00;99.90;;;;;;5028944;28;20175;-78
2021/05/10 04:42:16;;;;;;;1.58;1.25;;;16.50;99.90;;;;;;5028950;28;20642;-78
2021/05/10 04:44:42;;;;;;;1.48;1.38;;;17.00;99.90;;;;;;5027473;28;20185;-78
2021/05/10 04:47:08;;;;;;;1.48;1.38;;;17.50;99.90;;;;;;5028603;28;20864;-76
2021/05/10 04:49:33;;;;;;;1.30;1.20;;;18.00;99.90;;;;;;5028008;28;20274;-79
2021/05/10 04:51:59;;;;;;;1.38;1.27;;;18.70;99.90;;;;;;5027432;28;20285;-78
2021/05/10 04:54:24;;;;;;;1.58;1.48;;;19.30;99.90;;;;;;5027919;28;20179;-79
2021/05/10 04:56:50;;;;;;;1.33;1.23;;;19.10;99.90;;;;;;5026947;28;20228;-78
2021/05/10 04:59:15;;;;;;;1.55;1.25;;;19.00;99.90;;;;;;5029256;28;20191;-78
2021/05/10 05:01:43;;;;;;;1.60;1.27;;;19.10;99.90;;;;;;5027438;28;20183;-79
2021/05/10 05:04:08;;;;;;;1.60;1.50;;;19.00;99.90;;;;;;5026831;28;20241;-75
2021/05/10 05:06:34;;;;;;;1.67;1.58;;;18.30;99.90;;;;;;5029287;28;20214;-78
2021/05/10 05:09:00;;;;;;;2.20;1.65;;;17.50;99.90;;;;;;5028174;28;20711;-75
2021/05/10 05:11:25;;;;;;;1.60;1.50;;;17.00;99.90;;;;;;5025112;28;20182;-77
2021/05/10 05:13:51;;;;;;;1.95;1.70;;;16.70;99.90;;;;;;5028233;28;20178;-77
2021/05/10 05:16:16;;;;;;;2.45;2.25;;;16.60;99.90;;;;;;5029386;28;20234;-77
2021/05/10 05:18:42;;;;;;;2.05;1.83;;;16.50;99.90;;;;;;5024379;28;20185;-77
2021/05/10 05:21:08;;;;;;;1.88;1.58;;;16.50;99.90;;;;;;5025193;28;20187;-78
2021/05/10 05:23:34;;;;;;;1.67;1.58;;;16.50;99.90;;;;;;5028183;28;20186;-77
2021/05/10 05:26:02;;;;;;;2.40;1.80;;;16.60;99.90;;;;;;5029669;28;20206;-77
2021/05/10 05:28:29;;;;;;;1.88;1.67;;;16.50;99.90;;;;;;5029393;28;20199;-78
2021/05/10 05:30:56;;;;;;;2.70;1.65;;;16.60;99.90;;;;;;5028879;28;20179;-77
2021/05/10 05:33:22;;;;;;;1.90;1.58;;;16.80;99.90;;;;;;5028191;28;20273;-76
2021/05/10 05:35:47;;;;;;;1.73;1.52;;;16.90;99.90;;;;;;5029317;28;20703;-76
2021/05/10 05:38:13;;;;;;;2.30;2.10;;;17.00;99.90;;;;;;5028316;28;20260;-76
2021/05/10 05:40:40;;;;;;;2.05;1.40;;;17.00;99.90;;;;;;5026904;28;20655;-81
2021/05/10 05:43:08;;;;;;;3.85;2.20;;;16.90;99.90;;;;;;5024916;28;20195;-81
2021/05/10 05:45:35;;;;;;;2.00;1.77;;;16.90;99.90;;;;;;5023421;28;20487;-82
2021/05/10 05:48:06;;;;;;;2.20;2.00;;;17.10;99.90;;;;;;5022130;28;20202;-81
2021/05/10 05:50:33;;;;;;;2.22;2.03;;;17.20;99.90;;;;;;5024310;28;20248;-81
2021/05/10 05:52:59;;;;;;;1.90;1.70;;;17.30;99.90;;;;;;5023227;28;20175;-81
2021/05/10 05:55:26;;;;;;;2.03;1.92;;;17.60;99.90;;;;;;5023023;28;20187;-81
2021/05/10 05:57:51;;;;;;;2.03;1.58;;;17.90;99.90;;;;;;5023418;28;20171;-81
2021/05/10 06:00:18;;;;;;;1.63;1.52;;;18.20;99.90;;;;;;5023796;28;20559;-82
2021/05/10 06:02:43;;;;;;;2.30;2.03;;;18.30;99.90;;;;;;5025049;28;20186;-82
2021/05/10 06:05:11;;;;;;;3.22;1.75;;;18.40;99.90;;;;;;5026977;28;20186;-82
2021/05/10 06:07:44;;;;;;;2.92;2.47;;;18.40;99.90;;;;;;5022366;28;20792;-75
2021/05/10 06:10:12;;;;;;;2.08;1.88;;;18.60;99.90;;;;;;5024156;28;20210;-81
2021/05/10 06:12:38;;;;;;;2.20;1.98;;;19.00;99.90;;;;;;5024094;28;20269;-81
2021/05/10 06:15:08;;;;;;;1.98;1.80;;;19.40;99.90;;;;;;5023509;28;20664;-81
2021/05/10 06:17:37;;;;;;;2.08;1.80;;;19.70;99.90;;;;;;5024633;28;20302;-81
2021/05/10 06:20:07;;;;;;;2.50;2.17;;;19.90;99.90;;;;;;5024292;28;20194;-76
2021/05/10 06:22:33;;;;;;;2.60;1.85;;;19.80;99.90;;;;;;5023163;28;20445;-76
2021/05/10 06:25:00;;;;;;;3.55;2.30;;;19.50;99.90;;;;;;5023213;28;21037;-76
2021/05/10 06:27:25;;;;;;;3.03;2.00;;;19.20;99.90;;;;;;5023207;28;20211;-76
2021/05/10 06:29:51;;;;;;;2.38;1.90;;;18.90;99.90;;;;;;5023226;28;20207;-76
2021/05/10 06:32:16;;;;;;;2.33;2.13;;;18.90;99.90;;;;;;5021649;28;20567;-77
2021/05/10 06:34:42;;;;;;;2.67;2.10;;;19.20;99.90;;;;;;5022960;28;20505;-76
2021/05/10 06:37:07;;;;;;;2.15;1.90;;;19.70;99.90;;;;;;5022811;28;20230;-76
2021/05/10 06:39:33;;;;;;;2.10;1.90;;;19.90;99.90;;;;;;5023789;28;20262;-77
2021/05/10 06:41:59;;;;;;;2.13;1.80;;;20.00;99.90;;;;;;5022952;28;20248;-76
2021/05/10 06:44:24;;;;;;;3.28;2.20;;;19.70;99.90;;;;;;5023114;28;20187;-76
2021/05/10 06:46:50;;;;;;;2.15;1.95;;;19.60;99.90;;;;;;5022850;28;20210;-76
2021/05/10 06:49:15;;;;;;;3.15;2.22;;;19.50;99.90;;;;;;5025387;28;20401;-74
2021/05/10 06:51:41;;;;;;;3.10;2.53;;;19.30;99.90;;;;;;5022385;28;20190;-77
2021/05/10 06:54:06;;;;;;;2.60;2.20;;;19.20;99.90;;;;;;5023234;28;20186;-76
2021/05/10 06:56:32;;;;;;;2.80;2.50;;;19.20;99.90;;;;;;5022928;28;20548;-77
2021/05/10 06:58:58;;;;;;;2.70;2.38;;;19.20;99.90;;;;;;5023237;28;20206;-76
2021/05/10 07:01:24;;;;;;;2.30;2.10;;;19.10;99.90;;;;;;5021204;28;20598;-76
2021/05/10 07:03:49;;;;;;;2.80;1.92;;;19.20;99.90;;;;;;5022933;28;20703;-76
2021/05/10 07:06:15;;;;;;;1.98;1.77;;;19.30;99.90;;;;;;5022687;28;20219;-77
2021/05/10 07:08:41;;;;;;;4.22;2.40;;;19.50;99.90;;;;;;5022307;28;20198;-77
2021/05/10 07:11:06;;;;;;;2.17;1.98;;;19.70;99.90;;;;;;5022845;28;20194;-77
2021/05/10 07:13:32;;;;;;;2.35;1.80;;;19.80;99.90;;;;;;5023206;28;20179;-79
2021/05/10 07:15:58;;;;;;;2.25;2.05;;;19.90;99.90;;;;;;5021930;28;20199;-78
2021/05/10 07:18:23;;;;;;;1.83;1.67;;;20.10;99.90;;;;;;5023827;28;20278;-79
2021/05/10 07:20:49;;;;;;;1.85;1.65;;;20.60;99.90;;;;;;5020111;28;20191;-79
2021/05/10 07:23:16;;;;;;;1.83;1.70;;;20.90;99.90;;;;;;5021194;28;20187;-79
2021/05/10 07:25:47;;;;;;;2.28;1.98;;;21.00;99.90;;;;;;5022094;28;20202;-79
2021/05/10 07:28:15;;;;;;;2.13;1.92;;;21.20;99.90;;;;;;5022264;28;20774;-79
2021/05/10 07:30:41;;;;;;;1.50;1.40;;;21.50;99.90;;;;;;5021461;28;20244;-80
2021/05/10 07:33:07;;;;;;;1.40;1.30;;;21.80;99.90;;;;;;5022816;28;20193;-79
2021/05/10 07:35:33;;;;;;;1.20;1.10;;;22.00;99.90;;;;;;5021404;28;20199;-79
2021/05/10 07:38:00;;;;;;;1.65;1.45;;;22.20;99.90;;;;;;5021427;28;20205;-79
2021/05/10 07:40:26;;;;;;;4.07;1.70;;;22.20;99.90;;;;;;5022226;28;20422;-79
2021/05/10 07:42:52;;;;;;;3.33;1.75;;;22.10;99.90;;;;;;5021192;28;20178;-80
2021/05/10 07:45:19;;;;;;;1.45;1.25;;;21.80;99.90;;;;;;5020327;28;20179;-80
2021/05/10 07:47:47;;;;;;;1.52;1.42;;;22.00;99.90;;;;;;5022757;28;20167;-79
2021/05/10 07:50:12;;;;;;;2.30;1.30;;;22.20;99.90;;;;;;5022604;28;20309;-80
2021/05/10 07:52:38;;;;;;;8.00;2.25;;;22.10;99.90;;;;;;5020733;28;20317;-80
2021/05/10 07:55:05;;;;;;;1.80;1.50;;;22.10;99.90;;;;;;5022570;28;20197;-80
2021/05/10 07:57:31;;;;;;;1.88;1.73;;;22.20;99.90;;;;;;5020877;28;20208;-81
2021/05/10 07:59:56;;;;;;;1.40;1.30;;;22.10;99.90;;;;;;5022742;28;20182;-81
2021/05/10 08:02:23;;;;;;;5.20;1.63;;;22.30;99.90;;;;;;5022473;28;20214;-79
2021/05/10 08:04:50;;;;;;;1.63;1.52;;;22.40;99.90;;;;;;5022087;28;20202;-79
2021/05/10 08:07:16;;;;;;;1.52;1.42;;;22.80;99.90;;;;;;5020706;28;20252;-79
2021/05/10 08:09:42;;;;;;;1.58;1.48;;;23.20;99.90;;;;;;5020474;28;20234;-80
2021/05/10 08:12:08;;;;;;;1.52;1.40;;;23.50;99.90;;;;;;5021738;28;20655;-80
2021/05/10 08:14:35;;;;;;;1.55;1.45;;;23.60;99.90;;;;;;5021018;28;20329;-80
2021/05/10 08:17:01;;;;;;;1.95;1.20;;;23.30;99.90;;;;;;5022282;28;20612;-80
2021/05/10 08:19:27;;;;;;;1.50;1.40;;;23.30;99.90;;;;;;5020375;28;20198;-80
2021/05/10 08:22:04;;;;;;;1.85;1.75;;;23.40;99.90;;;;;;5022095;28;20191;-80
2021/05/10 08:24:30;;;;;;;1.40;1.30;;;23.50;99.90;;;;;;5020372;28;20187;-79
2021/05/10 08:26:55;;;;;;;1.17;1.08;;;23.80;99.90;;;;;;5022850;28;20581;-79
2021/05/10 08:29:21;;;;;;;1.60;1.38;;;23.90;99.90;;;;;;5021779;28;20225;-80
2021/05/10 08:31:47;;;;;;;1.15;0.90;;;24.00;99.90;;;;;;5021789;28;20187;-80
2021/05/10 08:34:17;;;;;;;1.00;1.00;;;24.30;99.90;;;;;;5020315;28;20257;-80
2021/05/10 08:36:44;;;;;;;2.53;1.05;;;24.40;99.90;;;;;;5022397;28;20203;-80
2021/05/10 08:39:10;;;;;;;1.08;0.90;;;24.50;99.90;;;;;;5021748;28;20584;-80
2021/05/10 08:41:40;;;;;;;1.65;1.00;;;24.80;99.90;;;;;;5021344;28;20179;-81
2021/05/10 08:44:10;;;;;;;0.80;0.80;;;25.00;99.90;;;;;;5022493;28;20693;-79
2021/05/10 08:46:38;;;;;;;0.98;0.88;;;25.10;99.90;;;;;;5022666;28;20199;-80
2021/05/10 08:49:04;;;;;;;1.42;0.77;;;25.10;99.90;;;;;;5024953;28;20469;-80
2021/05/10 08:51:30;;;;;;;0.60;0.60;;;24.90;99.90;;;;;;5025158;28;20469;-80
2021/05/10 08:53:56;;;;;;;1.58;0.80;;;24.70;99.90;;;;;;5022075;28;20707;-79
2021/05/10 08:56:23;;;;;;;0.80;0.80;;;24.90;99.90;;;;;;5023168;28;20561;-79
2021/05/10 08:58:49;;;;;;;0.80;0.80;;;25.10;99.90;;;;;;5028688;28;20190;-80
2021/05/10 09:01:15;;;;;;;0.80;0.80;;;25.20;99.90;;;;;;5021673;28;20183;-79
2021/05/10 09:03:44;;;;;;;0.95;0.95;;;25.30;99.90;;;;;;5021506;28;20222;-80
2021/05/10 09:06:12;;;;;;;0.82;0.80;;;25.20;99.90;;;;;;5021657;28;20206;-79
2021/05/10 09:08:41;;;;;;;2.17;0.98;;;25.50;99.20;;;;;;5021935;28;20198;-79
2021/05/10 09:11:18;;;;;;;0.77;0.70;;;25.60;98.50;;;;;;5029190;28;20182;-78
2021/05/10 09:13:46;;;;;;;1.17;0.88;;;25.70;98.10;;;;;;5029362;28;20213;-78
2021/05/10 09:16:15;;;;;;;1.13;0.93;;;25.90;97.80;;;;;;5034371;28;20209;-78
2021/05/10 09:18:53;;;;;;;0.90;0.80;;;26.00;97.10;;;;;;5034016;28;20213;-79
2021/05/10 09:21:25;;;;;;;0.70;0.70;;;26.30;96.10;;;;;;5027032;28;20194;-76
2021/05/10 09:23:51;;;;;;;1.13;0.85;;;26.50;95.00;;;;;;5022271;28;20225;-76
2021/05/10 09:26:30;;;;;;;0.80;0.80;;;26.40;94.90;;;;;;5022840;28;20211;-76
2021/05/10 09:28:56;;;;;;;0.73;0.73;;;26.40;93.90;;;;;;5026893;28;20676;-79
2021/05/10 09:31:22;;;;;;;0.88;0.80;;;26.40;93.30;;;;;;5033769;28;20190;-79
2021/05/10 09:33:48;;;;;;;0.80;0.80;;;26.40;92.80;;;;;;5035189;28;20191;-79
2021/05/10 09:36:43;;;;;;;1.10;0.88;;;26.40;93.00;;;;;;5032811;28;20203;-78
2021/05/10 09:39:27;;;;;;;1.00;0.98;;;26.40;93.00;;;;;;5024630;28;20241;-77
2021/05/10 09:42:02;;;;;;;0.80;0.80;;;26.50;92.10;;;;;;5034489;28;20186;-76
2021/05/10 09:44:41;;;;;;;0.80;0.80;;;26.90;92.70;;;;;;5034167;28;20190;-78
2021/05/10 09:47:06;;;;;;;1.08;0.88;;;27.40;92.00;;;;;;5029222;28;20211;-79
2021/05/10 09:49:46;;;;;;;0.80;0.80;;;27.30;89.80;;;;;;5024685;28;20206;-80
2021/05/10 09:52:20;;;;;;;0.70;0.70;;;27.50;91.70;;;;;;5039474;28;20224;-80
2021/05/10 09:55:01;;;;;;;1.13;1.00;;;27.60;89.60;;;;;;5024524;28;20257;-81
2021/05/10 09:57:27;;;;;;;1.77;0.88;;;27.80;88.90;;;;;;5024677;28;20203;-79
2021/05/10 10:00:19;;;;;;;1.88;0.93;;;27.90;88.40;;;;;;5023447;28;20771;-79
2021/05/10 10:02:45;;;;;;;0.70;0.70;;;28.10;87.00;;;;;;5025341;28;20179;-79
2021/05/10 10:05:11;;;;;;;1.13;0.80;;;27.80;83.70;;;;;;5025777;28;20175;-79
2021/05/10 10:07:38;;;;;;;1.10;1.00;;;27.60;82.80;;;;;;5027050;28;20198;-78
2021/05/10 10:10:04;;;;;;;1.20;1.10;;;27.80;84.20;;;;;;5024337;28;20215;-79
2021/05/10 10:12:32;;;;;;;0.77;0.77;;;28.10;82.20;;;;;;5023642;28;20209;-79
2021/05/10 10:14:57;;;;;;;0.70;0.70;;;28.30;79.80;;;;;;5023319;28;20237;-79
2021/05/10 10:17:23;;;;;;;0.70;0.70;;;28.40;77.70;;;;;;5025184;28;20215;-79
2021/05/10 10:19:50;;;;;;;0.98;0.93;;;28.60;77.00;;;;;;5024787;28;20179;-79
2021/05/10 10:22:17;;;;;;;0.90;0.77;;;29.00;76.10;;;;;;5022126;28;20499;-79
2021/05/10 10:24:47;;;;;;;0.95;0.93;;;28.80;74.50;;;;;;5023380;28;20209;-79
2021/05/10 10:27:13;;;;;;;2.65;1.33;;;29.00;74.90;;;;;;5021642;28;20203;-79
2021/05/10 10:29:41;;;;;;;2.47;0.98;;;29.20;73.10;;;;;;5023194;28;20233;-79
2021/05/10 10:32:08;;;;;;;0.90;0.90;;;29.60;72.80;;;;;;5022179;28;20187;-79
2021/05/10 10:34:41;;;;;;;2.85;0.88;;;29.50;74.70;;;;;;5022984;28;20779;-79
2021/05/10 10:37:07;;;;;;;2.47;1.10;;;29.40;75.90;;;;;;5021457;28;20261;-79
2021/05/10 10:39:35;;;;;;;1.05;0.90;;;29.50;73.30;;;;;;5021705;28;20653;-79
2021/05/10 10:42:22;;;;;;;1.10;0.95;;;29.30;72.50;;;;;;5023480;28;20195;-79
2021/05/10 10:44:54;;;;;;;0.85;0.85;;;29.40;72.70;;;;;;5023937;28;20337;-79
2021/05/10 10:47:46;;;;;;;0.90;0.77;;;29.50;71.80;;;;;;5023742;28;20707;-79
2021/05/10 10:50:14;;;;;;;0.80;0.80;;;29.90;72.10;;;;;;5024945;28;20685;-79
2021/05/10 10:52:47;;;;;;;1.58;1.00;;;30.20;69.50;;;;;;5022494;28;20240;-81
2021/05/10 10:55:30;;;;;;;1.48;0.98;;;30.00;73.00;;;;;;5022273;28;20529;-80
2021/05/10 10:58:22;;;;;;;1.08;0.98;;;29.80;71.00;;;;;;5023590;28;20273;-75
2021/05/10 11:01:01;;;;;;;0.80;0.77;;;29.70;72.30;;;;;;5030104;28;20190;-77
2021/05/10 11:03:27;;;;;;;2.25;0.70;;;29.80;71.90;;;;;;5031443;28;20185;-77
2021/05/10 11:05:54;;;;;;;2.05;0.90;;;29.60;70.60;;;;;;5033049;28;20198;-76
2021/05/10 11:08:52;;;;;;;0.98;0.80;;;29.40;70.10;;;;;;5033276;28;20203;-77
2021/05/10 11:11:27;;;;;;;0.50;0.50;;;29.20;66.50;;;;;;5032432;28;20178;-75
2021/05/10 11:13:53;;;;;;;1.63;0.60;;;28.90;66.90;;;;;;5032890;28;20201;-77
2021/05/10 11:16:49;;;;;;;0.68;0.68;;;29.20;69.50;;;;;;5033246;28;20207;-79
2021/05/10 11:19:30;;;;;;;1.27;0.63;;;29.50;67.90;;;;;;5033084;28;20175;-77
2021/05/10 11:21:58;;;;;;;3.15;0.73;;;29.80;70.20;;;;;;5030475;28;20193;-76
2021/05/10 11:24:31;;;;;;;1.00;0.93;;;30.20;68.40;;;;;;5031962;28;20671;-76
2021/05/10 11:27:01;;;;;;;1.17;0.88;;;30.30;67.20;;;;;;5024708;28;20265;-77
2021/05/10 11:29:27;;;;;;;0.90;0.90;;;30.20;66.80;;;;;;5029841;28;20301;-77
2021/05/10 11:31:54;;;;;;;0.60;0.60;;;30.10;66.70;;;;;;5032183;28;20179;-78
2021/05/10 11:34:34;;;;;;;2.28;0.80;;;29.80;68.20;;;;;;5033681;28;20688;-78
2021/05/10 11:37:00;;;;;;;1.30;0.80;;;29.80;69.80;;;;;;5031776;28;20202;-78
2021/05/10 11:39:31;;;;;;;0.77;0.77;;;29.30;67.90;;;;;;5034024;28;20713;-77
2021/05/10 11:42:05;;;;;;;1.58;0.90;;;29.10;69.90;;;;;;5030638;28;20191;-77
2021/05/10 11:44:36;;;;;;;1.25;0.77;;;29.00;71.10;;;;;;5030608;28;20183;-78
2021/05/10 11:47:07;;;;;;;1.35;0.90;;;28.90;71.30;;;;;;5030751;28;20638;-77
2021/05/10 11:49:32;;;;;;;1.55;0.60;;;28.80;71.20;;;;;;5030545;28;20207;-79
2021/05/10 11:52:12;;;;;;;0.93;0.88;;;28.50;71.80;;;;;;5028411;28;20183;-78
2021/05/10 11:54:58;;;;;;;1.02;0.85;;;28.20;70.80;;;;;;5028870;28;20210;-78
2021/05/10 11:57:27;;;;;;;1.48;0.90;;;28.10;72.40;;;;;;5033257;28;20202;-78
2021/05/10 12:00:03;;;;;;;1.90;0.90;;;28.20;73.70;;;;;;5031419;28;20183;-78
2021/05/10 12:02:31;;;;;;;0.90;0.60;;;28.10;73.70;;;;;;5031650;28;20171;-77
2021/05/10 12:05:02;;;;;;;1.55;1.10;;;28.00;71.60;;;;;;5030627;28;20183;-76
2021/05/10 12:07:29;;;;;;;1.92;0.90;;;28.00;72.00;;;;;;5029390;28;20199;-78
2021/05/10 12:10:03;;;;;;;1.08;0.60;;;27.80;72.00;;;;;;5030634;28;20260;-77
2021/05/10 12:12:44;;;;;;;1.48;0.98;;;27.60;71.70;;;;;;5029603;28;20179;-76
2021/05/10 12:15:15;;;;;;;2.30;1.00;;;27.40;72.70;;;;;;5030234;28;20209;-78
2021/05/10 12:17:50;;;;;;;2.83;1.05;;;27.30;73.20;;;;;;5042188;28;20181;-78
2021/05/10 12:20:28;;;;;;;0.63;0.63;;;27.50;75.70;;;;;;5021895;28;20187;-77
2021/05/10 12:22:55;;;;;;;4.53;0.85;;;27.80;74.20;;;;;;5025251;28;20619;-79
2021/05/10 12:25:30;;;;;;;0.93;0.80;;;28.10;74.70;;;;;;5023184;28;20841;-78
2021/05/10 12:28:17;;;;;;;0.70;0.70;;;28.10;74.00;;;;;;5022965;28;20190;-77
2021/05/10 12:30:49;;;;;;;1.83;0.60;;;27.90;73.20;;;;;;5022859;28;20599;-77
2021/05/10 12:33:20;;;;;;;0.80;0.60;;;27.80;74.70;;;;;;5021558;28;20190;-77
2021/05/10 12:35:48;;;;;;;0.85;0.60;;;27.60;72.90;;;;;;5023564;28;20602;-78
2021/05/10 12:38:29;;;;;;;0.47;0.43;;;27.60;73.20;;;;;;5023089;28;20578;-76
2021/05/10 12:40:55;;;;;;;0.85;0.70;;;27.70;73.60;;;;;;5023520;28;20236;-77
2021/05/10 12:43:22;;;;;;;0.40;0.40;;;27.70;74.50;;;;;;5024525;28;20183;-77
2021/05/10 12:45:57;;;;;;;0.60;0.60;;;27.70;74.40;;;;;;5021824;28;20241;-76
2021/05/10 12:48:24;;;;;;;2.15;0.90;;;27.70;73.60;;;;;;5023735;28;20190;-77
2021/05/10 12:50:51;;;;;;;1.05;0.80;;;27.60;74.00;;;;;;5025054;28;20190;-77
2021/05/10 12:53:41;;;;;;;0.65;0.40;;;27.20;72.70;;;;;;5029879;28;20183;-78
2021/05/10 12:56:11;;;;;;;1.17;0.55;;;27.00;73.40;;;;;;5031885;28;20206;-78
2021/05/10 12:58:48;;;;;;;1.05;0.68;;;27.00;74.30;;;;;;5031487;28;20232;-78
2021/05/10 13:01:24;;;;;;;0.35;0.35;;;26.90;74.60;;;;;;5031758;28;20197;-78
2021/05/10 13:03:56;;;;;;;0.45;0.45;;;27.00;75.70;;;;;;5033200;28;20217;-77
2021/05/10 13:06:26;;;;;;;6.88;0.70;;;27.00;75.80;;;;;;5034531;28;20575;-77